createdAt,value
2023-02-08T00:01:07.476Z,-0.30
2023-02-08T00:03:35.179Z,-0.40
2023-02-08T00:06:02.946Z,-0.40
2023-02-08T00:08:30.700Z,-0.40
2023-02-08T00:10:58.417Z,-0.50
2023-02-08T00:13:27.627Z,-0.50
2023-02-08T00:15:56.226Z,-0.60
2023-02-08T00:18:24.310Z,-0.60
2023-02-08T00:20:52.541Z,-0.50
2023-02-08T00:23:20.246Z,-0.50
2023-02-08T00:25:47.917Z,-0.50
2023-02-08T00:28:17.425Z,-0.50
2023-02-08T00:30:47.018Z,-0.50
2023-02-08T00:33:14.744Z,-0.60
2023-02-08T00:35:42.473Z,-0.70
2023-02-08T00:38:10.200Z,-0.60
2023-02-08T00:40:38.314Z,-0.60
2023-02-08T00:43:06.847Z,-0.60
2023-02-08T00:45:34.787Z,-0.70
2023-02-08T00:48:03.806Z,-0.70
2023-02-08T00:50:31.481Z,-0.70
2023-02-08T00:52:59.776Z,-0.70
2023-02-08T00:55:27.489Z,-0.70
2023-02-08T00:57:55.267Z,-0.60
2023-02-08T01:00:23.252Z,-0.60
2023-02-08T01:02:50.955Z,-0.60
2023-02-08T01:05:20.108Z,-0.70
2023-02-08T01:07:47.798Z,-0.70
2023-02-08T01:10:15.632Z,-0.60
2023-02-08T01:12:43.332Z,-0.50
2023-02-08T01:15:11.030Z,-0.70
2023-02-08T01:17:38.713Z,-0.80
2023-02-08T01:20:07.139Z,-0.70
2023-02-08T01:22:36.168Z,-0.80
2023-02-08T01:25:04.110Z,-0.80
2023-02-08T01:27:31.787Z,-0.80
2023-02-08T01:29:59.474Z,-0.80
2023-02-08T01:32:27.302Z,-0.80
2023-02-08T01:34:54.998Z,-0.80
2023-02-08T01:37:22.956Z,-0.70
2023-02-08T01:39:51.957Z,-0.90
2023-02-08T01:42:20.482Z,-0.80
2023-02-08T01:45:28.752Z,-0.90
2023-02-08T01:48:01.194Z,-0.90
2023-02-08T01:50:35.501Z,-1.10
2023-02-08T01:53:03.831Z,-1.10
2023-02-08T01:55:35.031Z,-1.00
2023-02-08T01:58:07.027Z,-1.00
2023-02-08T02:00:34.916Z,-1.10
2023-02-08T02:03:04.927Z,-1.10
2023-02-08T02:05:39.025Z,-1.00
2023-02-08T02:08:07.615Z,-1.00
2023-02-08T02:10:39.054Z,-0.90
2023-02-08T02:13:10.191Z,-0.70
2023-02-08T02:15:38.257Z,-0.70
2023-02-08T02:18:08.572Z,-0.80
2023-02-08T02:21:02.899Z,-1.00
2023-02-08T02:23:49.635Z,-1.00
2023-02-08T02:26:54.246Z,-1.10
2023-02-08T02:30:10.037Z,-1.10
2023-02-08T02:32:50.693Z,-1.10
2023-02-08T02:35:26.998Z,-1.10
2023-02-08T02:38:04.915Z,-1.10
2023-02-08T02:40:41.117Z,-1.10
2023-02-08T02:43:33.729Z,-1.20
2023-02-08T02:46:06.583Z,-1.30
2023-02-08T02:48:42.799Z,-1.30
2023-02-08T02:51:13.966Z,-1.20
2023-02-08T02:53:48.835Z,-1.10
2023-02-08T02:56:20.650Z,-1.10
2023-02-08T02:58:48.417Z,-1.20
2023-02-08T03:01:25.879Z,-1.10
2023-02-08T03:03:55.781Z,-1.10
2023-02-08T03:06:32.647Z,-1.10
2023-02-08T03:09:28.916Z,-1.20
2023-02-08T03:12:05.672Z,-1.40
2023-02-08T03:14:45.153Z,-1.40
2023-02-08T03:17:30.144Z,-1.20
2023-02-08T03:20:06.508Z,-1.20
2023-02-08T03:22:44.133Z,-1.10
2023-02-08T03:25:18.750Z,-1.10
2023-02-08T03:27:53.703Z,-1.10
2023-02-08T03:30:28.739Z,-1.10
2023-02-08T03:33:01.134Z,-1.30
2023-02-08T03:35:34.522Z,-1.30
2023-02-08T03:38:06.631Z,-1.20
2023-02-08T03:40:37.601Z,-1.20
2023-02-08T03:43:11.344Z,-1.30
2023-02-08T03:45:43.538Z,-1.40
2023-02-08T03:48:13.800Z,-1.40
2023-02-08T03:50:47.588Z,-1.40
2023-02-08T03:53:18.104Z,-1.40
2023-02-08T03:55:48.982Z,-1.50
2023-02-08T03:58:22.622Z,-1.40
2023-02-08T04:00:56.371Z,-1.40
2023-02-08T04:03:26.957Z,-1.50
2023-02-08T04:05:56.455Z,-1.40
2023-02-08T04:08:24.271Z,-1.30
2023-02-08T04:10:51.962Z,-1.30
2023-02-08T04:13:19.809Z,-1.50
2023-02-08T04:15:47.834Z,-1.50
2023-02-08T04:18:15.756Z,-1.40
2023-02-08T04:20:43.422Z,-1.30
2023-02-08T04:23:12.422Z,-1.30
2023-02-08T04:25:40.188Z,-1.20
2023-02-08T04:28:07.930Z,-1.30
2023-02-08T04:30:35.668Z,-1.40
2023-02-08T04:33:03.783Z,-1.40
2023-02-08T04:35:31.580Z,-1.20
2023-02-08T04:37:59.321Z,-1.40
2023-02-08T04:40:28.619Z,-1.50
2023-02-08T04:42:56.300Z,-1.50
2023-02-08T04:45:25.124Z,-1.50
2023-02-08T04:47:52.864Z,-1.50
2023-02-08T04:50:21.012Z,-1.50
2023-02-08T04:52:48.705Z,-1.50
2023-02-08T04:55:16.534Z,-1.50
2023-02-08T04:57:45.549Z,-1.40
2023-02-08T05:00:14.518Z,-1.40
2023-02-08T05:02:42.235Z,-1.40
2023-02-08T05:05:10.393Z,-1.30
2023-02-08T05:07:38.096Z,-1.30
2023-02-08T05:10:06.276Z,-1.30
2023-02-08T05:12:34.065Z,-1.10
2023-02-08T05:15:03.076Z,-1.20
2023-02-08T05:17:30.801Z,-1.20
2023-02-08T05:19:58.476Z,-1.40
2023-02-08T05:22:26.227Z,-1.40
2023-02-08T05:24:54.002Z,-1.40
2023-02-08T05:27:22.252Z,-1.30
2023-02-08T05:29:50.049Z,-1.30
2023-02-08T05:32:19.265Z,-1.10
2023-02-08T05:34:47.696Z,-1.20
2023-02-08T05:37:15.404Z,-1.20
2023-02-08T05:39:43.102Z,-1.10
2023-02-08T05:42:10.808Z,-1.10
2023-02-08T05:44:39.279Z,-1.10
2023-02-08T05:47:07.008Z,-1.10
2023-02-08T05:49:36.011Z,-1.00
2023-02-08T05:52:03.701Z,-1.10
2023-02-08T05:54:31.382Z,-1.10
2023-02-08T05:56:59.075Z,-1.10
2023-02-08T05:59:26.908Z,-1.00
2023-02-08T06:01:54.591Z,-0.90
2023-02-08T06:04:22.471Z,-0.90
2023-02-08T06:06:51.541Z,-0.90
2023-02-08T06:09:19.232Z,-0.90
2023-02-08T06:11:46.887Z,-0.70
2023-02-08T06:14:14.580Z,-0.70
2023-02-08T06:16:42.290Z,-0.70
2023-02-08T06:19:10.039Z,-0.60
2023-02-08T06:21:37.885Z,-0.60
2023-02-08T06:24:07.681Z,-0.60
2023-02-08T06:26:35.508Z,-0.50
2023-02-08T06:29:03.469Z,-0.50
2023-02-08T06:31:31.270Z,-0.60
2023-02-08T06:33:59.017Z,-0.60
2023-02-08T06:36:26.896Z,-0.60
2023-02-08T06:38:54.597Z,-0.60
2023-02-08T06:41:23.610Z,-0.60
2023-02-08T06:43:51.381Z,-0.60
2023-02-08T06:46:19.044Z,-0.70
2023-02-08T06:48:55.371Z,-0.80
2023-02-08T06:51:23.052Z,-1.00
2023-02-08T06:53:50.876Z,-0.80
2023-02-08T06:56:18.662Z,-0.70
2023-02-08T06:58:47.723Z,-0.70
2023-02-08T07:01:15.891Z,-0.70
2023-02-08T07:03:43.673Z,-0.70
2023-02-08T07:06:14.756Z,-0.60
2023-02-08T07:08:42.593Z,-0.40
2023-02-08T07:11:11.602Z,-0.50
2023-02-08T07:13:39.872Z,-0.50
2023-02-08T07:16:10.691Z,-0.60
2023-02-08T07:18:38.699Z,-0.60
2023-02-08T07:21:06.758Z,-0.60
2023-02-08T07:23:34.543Z,-0.40
2023-02-08T07:26:03.817Z,-0.40
2023-02-08T07:28:32.039Z,-0.40
2023-02-08T07:31:00.133Z,-0.30
2023-02-08T07:33:29.235Z,-0.40
2023-02-08T07:35:57.044Z,-0.40
2023-02-08T07:38:24.813Z,-0.40
2023-02-08T07:40:52.530Z,-0.30
2023-02-08T07:43:20.220Z,-0.30
2023-02-08T07:45:48.232Z,-0.20
2023-02-08T07:48:15.994Z,-0.10
2023-02-08T07:50:45.072Z,-0.10
2023-02-08T07:53:12.779Z,-0.20
2023-02-08T07:55:40.502Z,-0.30
2023-02-08T07:58:08.196Z,-0.30
2023-02-08T08:00:36.938Z,-0.30
2023-02-08T08:03:04.789Z,-0.20
2023-02-08T08:05:32.632Z,-0.10
2023-02-08T08:08:01.677Z,0.00
2023-02-08T08:10:29.400Z,0.00
2023-02-08T08:12:57.129Z,0.00
2023-02-08T08:15:24.819Z,0.00
2023-02-08T08:17:52.617Z,-0.10
2023-02-08T08:20:20.555Z,-0.10
2023-02-08T08:22:48.652Z,-0.10
2023-02-08T08:25:17.787Z,0.00
2023-02-08T08:27:45.608Z,0.20
2023-02-08T08:30:15.897Z,0.30
2023-02-08T08:32:43.768Z,0.40
2023-02-08T08:35:12.073Z,0.40
2023-02-08T08:37:40.211Z,0.40
2023-02-08T08:40:09.619Z,0.40
2023-02-08T08:42:39.762Z,0.50
2023-02-08T08:45:08.602Z,0.60
2023-02-08T08:47:36.588Z,0.70
2023-02-08T08:50:04.495Z,0.70
2023-02-08T08:52:32.212Z,0.80
2023-02-08T08:54:59.935Z,1.00
2023-02-08T08:57:27.672Z,0.90
2023-02-08T08:59:56.893Z,1.00
2023-02-08T09:02:24.677Z,1.00
2023-02-08T09:04:52.384Z,1.10
2023-02-08T09:07:20.078Z,1.30
2023-02-08T09:09:48.325Z,1.30
2023-02-08T09:12:16.498Z,1.30
2023-02-08T09:14:45.653Z,1.30
2023-02-08T09:17:14.666Z,1.50
2023-02-08T09:19:42.567Z,1.50
2023-02-08T09:22:10.310Z,1.60
2023-02-08T09:24:40.769Z,1.70
2023-02-08T09:27:08.463Z,1.80
2023-02-08T09:29:36.198Z,1.80
2023-02-08T09:32:04.320Z,2.00
2023-02-08T09:34:33.374Z,2.00
2023-02-08T09:37:01.092Z,2.10
2023-02-08T09:39:28.795Z,2.20
2023-02-08T09:42:14.436Z,2.30
2023-02-08T09:44:54.555Z,2.30
2023-02-08T09:47:27.120Z,2.30
2023-02-08T09:50:00.675Z,2.40
2023-02-08T09:52:35.337Z,2.40
2023-02-08T09:55:11.061Z,2.40
2023-02-08T09:57:39.810Z,2.40
2023-02-08T10:00:13.113Z,2.50
2023-02-08T10:02:44.062Z,2.60
2023-02-08T10:05:15.680Z,2.60
2023-02-08T10:07:44.611Z,2.70
2023-02-08T10:10:16.736Z,2.80
2023-02-08T10:12:54.119Z,2.80
2023-02-08T10:15:32.385Z,2.70
2023-02-08T10:18:15.265Z,2.90
2023-02-08T10:20:55.762Z,3.00
2023-02-08T10:23:36.021Z,3.10
2023-02-08T10:26:12.852Z,3.00
2023-02-08T10:29:12.851Z,3.00
2023-02-08T10:31:57.708Z,3.00
2023-02-08T10:34:36.714Z,3.20
2023-02-08T10:37:14.269Z,3.20
2023-02-08T10:39:42.040Z,3.20
2023-02-08T10:42:14.943Z,3.30
2023-02-08T10:44:55.533Z,3.40
2023-02-08T10:47:40.313Z,3.40
2023-02-08T10:50:15.620Z,3.40
2023-02-08T10:52:44.694Z,3.40
2023-02-08T10:55:15.151Z,3.50
2023-02-08T10:57:44.290Z,3.70
2023-02-08T11:00:19.030Z,3.80
2023-02-08T11:02:49.120Z,3.80
2023-02-08T11:05:19.265Z,3.90
2023-02-08T11:07:48.303Z,4.00
2023-02-08T11:10:24.121Z,4.10
2023-02-08T11:12:58.350Z,4.10
2023-02-08T11:15:28.307Z,4.20
2023-02-08T11:17:59.473Z,4.30
2023-02-08T11:20:32.546Z,4.40
2023-02-08T11:23:01.963Z,4.40
2023-02-08T11:25:36.873Z,4.50
2023-02-08T11:28:06.001Z,4.50
2023-02-08T11:30:34.334Z,4.50
2023-02-08T11:33:19.739Z,4.50
2023-02-08T11:35:56.640Z,4.50
2023-02-08T11:38:28.259Z,4.40
2023-02-08T11:40:58.381Z,4.40
2023-02-08T11:43:28.252Z,4.60
2023-02-08T11:45:58.056Z,4.70
2023-02-08T11:48:33.165Z,4.60
2023-02-08T11:51:03.399Z,4.70
2023-02-08T11:53:36.622Z,4.70
2023-02-08T11:56:07.860Z,4.70
2023-02-08T11:58:35.844Z,4.80
2023-02-08T12:01:06.843Z,4.80
2023-02-08T12:03:38.387Z,4.90
2023-02-08T12:06:21.918Z,5.00
2023-02-08T12:08:59.448Z,5.00
2023-02-08T12:11:33.110Z,5.00
2023-02-08T12:14:17.138Z,4.90
2023-02-08T12:16:58.536Z,4.90
2023-02-08T12:19:39.207Z,4.90
2023-02-08T12:22:10.699Z,5.10
2023-02-08T12:24:49.093Z,5.00
2023-02-08T12:27:31.551Z,5.00
2023-02-08T12:30:08.321Z,5.20
2023-02-08T12:33:02.565Z,5.30
2023-02-08T12:36:04.202Z,5.30
2023-02-08T12:39:19.685Z,5.30
2023-02-08T12:42:02.198Z,5.30
2023-02-08T12:44:38.150Z,5.30
2023-02-08T12:47:20.892Z,5.30
2023-02-08T12:49:57.859Z,5.30
2023-02-08T12:52:33.027Z,5.30
2023-02-08T12:55:08.973Z,5.40
2023-02-08T12:57:40.714Z,5.40
2023-02-08T13:00:18.941Z,5.40
2023-02-08T13:02:57.632Z,5.30
2023-02-08T13:05:30.676Z,5.40
2023-02-08T13:08:03.860Z,5.40
2023-02-08T13:10:37.357Z,5.40
2023-02-08T13:13:14.312Z,5.50
2023-02-08T13:15:46.552Z,5.50
2023-02-08T13:18:18.446Z,5.50
2023-02-08T13:20:48.824Z,5.70
2023-02-08T13:23:24.003Z,5.70
2023-02-08T13:25:55.565Z,5.60
2023-02-08T13:28:26.864Z,5.60
2023-02-08T13:30:59.681Z,5.60
2023-02-08T13:33:37.244Z,5.70
2023-02-08T13:36:05.875Z,5.50
2023-02-08T13:38:37.126Z,5.40
2023-02-08T13:41:19.492Z,5.40
2023-02-08T13:43:52.898Z,5.40
2023-02-08T13:46:22.599Z,5.40
2023-02-08T13:48:52.159Z,5.50
2023-02-08T13:51:55.949Z,5.40
2023-02-08T13:54:23.749Z,5.60
2023-02-08T13:56:53.271Z,5.70
2023-02-08T13:59:35.092Z,5.80
2023-02-08T14:02:24.631Z,5.70
2023-02-08T14:04:53.526Z,5.80
2023-02-08T14:07:30.092Z,5.70
2023-02-08T14:10:08.430Z,5.50
2023-02-08T14:12:42.405Z,5.70
2023-02-08T14:18:06.453Z,5.90
2023-02-08T14:20:39.677Z,5.90
2023-02-08T14:23:21.882Z,5.80
2023-02-08T14:25:51.918Z,5.60
2023-02-08T14:28:32.941Z,5.50
2023-02-08T14:31:03.877Z,5.70
2023-02-08T14:33:36.112Z,5.60
2023-02-08T14:36:07.232Z,5.50
2023-02-08T14:38:52.343Z,5.60
2023-02-08T14:41:51.495Z,5.60
2023-02-08T14:44:57.000Z,5.70
2023-02-08T14:47:54.327Z,5.60
2023-02-08T14:50:27.440Z,5.50
2023-02-08T14:53:02.264Z,5.60
2023-02-08T14:55:34.891Z,5.50
2023-02-08T14:58:03.885Z,5.50
2023-02-08T15:00:35.510Z,5.40
2023-02-08T15:03:06.112Z,5.30
2023-02-08T15:05:41.809Z,5.10
2023-02-08T15:08:09.918Z,5.10
2023-02-08T15:10:44.820Z,5.00
2023-02-08T15:13:20.952Z,4.90
2023-02-08T15:15:53.338Z,4.80
2023-02-08T15:18:24.116Z,4.70
2023-02-08T15:21:03.982Z,4.70
2023-02-08T15:23:31.950Z,4.70
2023-02-08T15:26:02.023Z,4.70
2023-02-08T15:28:31.133Z,4.60
2023-02-08T15:31:01.674Z,4.60
2023-02-08T15:33:29.614Z,4.50
2023-02-08T15:36:01.610Z,4.60
2023-02-08T15:38:30.588Z,4.60
2023-02-08T15:41:06.198Z,4.60
2023-02-08T15:43:35.426Z,4.50
2023-02-08T15:46:05.093Z,4.60
2023-02-08T15:48:34.177Z,4.60
2023-02-08T15:51:05.238Z,4.50
2023-02-08T15:53:34.081Z,4.40
2023-02-08T15:56:05.597Z,4.40
2023-02-08T15:58:36.901Z,4.40
2023-02-08T16:01:07.754Z,4.30
2023-02-08T16:03:36.673Z,4.20
2023-02-08T16:06:07.987Z,4.10
2023-02-08T16:08:40.860Z,4.20
2023-02-08T16:11:12.762Z,4.30
2023-02-08T16:13:42.661Z,4.20
2023-02-08T16:16:19.248Z,4.10
2023-02-08T16:18:50.386Z,4.00
2023-02-08T16:21:29.903Z,3.90
2023-02-08T16:23:59.197Z,3.80
2023-02-08T16:26:29.457Z,3.80
2023-02-08T16:29:00.212Z,3.80
2023-02-08T16:31:30.557Z,3.70
2023-02-08T16:34:04.063Z,3.70
2023-02-08T16:36:40.247Z,3.70
2023-02-08T16:39:46.825Z,3.70
2023-02-08T16:42:28.607Z,3.80
2023-02-08T16:45:02.853Z,3.90
2023-02-08T16:47:38.470Z,3.80
2023-02-08T16:50:06.895Z,3.70
2023-02-08T16:52:36.226Z,3.90
2023-02-08T16:55:04.890Z,3.80
2023-02-08T16:57:43.405Z,3.80
2023-02-08T17:00:17.381Z,3.70
2023-02-08T17:02:45.235Z,3.60
2023-02-08T17:05:13.096Z,3.60
2023-02-08T17:07:42.220Z,3.70
2023-02-08T17:10:20.694Z,3.60
2023-02-08T17:12:48.678Z,3.60
2023-02-08T17:15:16.863Z,3.60
2023-02-08T17:17:44.656Z,3.70
2023-02-08T17:20:20.584Z,3.80
2023-02-08T17:22:50.071Z,3.70
2023-02-08T17:25:19.861Z,3.80
2023-02-08T17:27:51.015Z,3.70
2023-02-08T17:30:25.307Z,3.70
2023-02-08T17:32:53.897Z,3.70
2023-02-08T17:35:21.803Z,3.60
2023-02-08T17:37:53.433Z,3.70
2023-02-08T17:40:22.381Z,3.60
2023-02-08T17:42:50.355Z,3.60
2023-02-08T17:45:18.197Z,3.60
2023-02-08T17:47:46.017Z,3.70
2023-02-08T17:50:18.319Z,3.70
2023-02-08T17:52:46.664Z,3.70
2023-02-08T17:55:17.465Z,3.60
2023-02-08T17:57:45.791Z,3.60
2023-02-08T18:00:16.036Z,3.60
2023-02-08T18:02:44.655Z,3.50
2023-02-08T18:05:12.479Z,3.50
2023-02-08T18:07:41.330Z,3.50
2023-02-08T18:10:11.460Z,3.40
2023-02-08T18:12:40.872Z,3.40
2023-02-08T18:15:11.992Z,3.40
2023-02-08T18:17:39.805Z,3.30
2023-02-08T18:20:08.809Z,3.20
2023-02-08T18:22:37.991Z,3.10
2023-02-08T18:25:06.437Z,3.20
2023-02-08T18:27:34.529Z,3.20
2023-02-08T18:30:03.734Z,3.20
2023-02-08T18:32:31.598Z,3.10
2023-02-08T18:35:01.163Z,3.10
2023-02-08T18:37:30.313Z,3.00
2023-02-08T18:39:58.183Z,3.10
2023-02-08T18:42:25.936Z,3.00
2023-02-08T18:44:53.673Z,3.00
2023-02-08T18:47:22.733Z,2.90
2023-02-08T18:49:54.294Z,2.90
2023-02-08T18:52:23.558Z,2.90
2023-02-08T18:54:51.785Z,2.80
2023-02-08T18:57:19.571Z,2.80
2023-02-08T18:59:47.359Z,2.80
2023-02-08T19:02:18.754Z,2.80
2023-02-08T19:04:48.109Z,2.80
2023-02-08T19:07:16.158Z,2.80
2023-02-08T19:09:44.433Z,2.80
2023-02-08T19:12:15.248Z,2.70
2023-02-08T19:14:43.956Z,2.70
2023-02-08T19:17:14.739Z,2.60
2023-02-08T19:19:43.053Z,2.60
2023-02-08T19:22:12.222Z,2.60
2023-02-08T19:24:39.928Z,2.60
2023-02-08T19:27:07.775Z,2.50
2023-02-08T19:29:35.645Z,2.40
2023-02-08T19:32:03.481Z,2.50
2023-02-08T19:34:31.222Z,2.50
2023-02-08T19:36:58.909Z,2.50
2023-02-08T19:39:28.664Z,2.40
2023-02-08T19:41:58.504Z,2.50
2023-02-08T19:44:29.083Z,2.50
2023-02-08T19:46:58.308Z,2.50
2023-02-08T19:49:27.268Z,2.50
2023-02-08T19:51:55.600Z,2.40
2023-02-08T19:54:23.452Z,2.40
2023-02-08T19:56:54.599Z,2.40
2023-02-08T19:59:24.342Z,2.30
2023-02-08T20:01:52.284Z,2.30
2023-02-08T20:04:20.741Z,2.30
2023-02-08T20:06:51.844Z,2.30
2023-02-08T20:09:19.563Z,2.20
2023-02-08T20:11:57.833Z,2.30
2023-02-08T20:14:30.940Z,2.20
2023-02-08T20:16:59.077Z,2.20
2023-02-08T20:19:28.380Z,2.20
2023-02-08T20:21:56.154Z,2.20
2023-02-08T20:24:23.961Z,2.10
2023-02-08T20:26:51.697Z,2.10
2023-02-08T20:29:19.722Z,2.10
2023-02-08T20:31:51.888Z,2.10
2023-02-08T20:34:19.705Z,2.10
2023-02-08T20:37:04.565Z,2.00
2023-02-08T20:39:33.957Z,2.00
2023-02-08T20:42:01.664Z,2.00
2023-02-08T20:44:29.582Z,1.90
2023-02-08T20:46:58.609Z,1.90
2023-02-08T20:49:26.859Z,1.90
2023-02-08T20:51:55.524Z,1.90
2023-02-08T20:54:24.949Z,1.90
2023-02-08T20:56:53.931Z,1.90
2023-02-08T20:59:21.704Z,1.90
2023-02-08T21:01:50.242Z,1.90
2023-02-08T21:04:23.074Z,1.80
2023-02-08T21:06:52.088Z,1.80
2023-02-08T21:09:20.419Z,1.80
2023-02-08T21:11:48.335Z,1.80
2023-02-08T21:14:18.990Z,1.80
2023-02-08T21:16:48.453Z,1.80
2023-02-08T21:19:17.156Z,1.80
2023-02-08T21:21:47.284Z,1.80
2023-02-08T21:24:15.003Z,1.70
2023-02-08T21:26:43.124Z,1.70
2023-02-08T21:29:10.849Z,1.70
2023-02-08T21:31:38.796Z,1.60
2023-02-08T21:34:07.826Z,1.60
2023-02-08T21:36:35.869Z,1.70
2023-02-08T21:39:05.142Z,1.60
2023-02-08T21:41:34.470Z,1.60
2023-02-08T21:44:04.314Z,1.60
2023-02-08T21:46:33.025Z,1.50
2023-02-08T21:49:19.048Z,1.50
2023-02-08T21:52:05.011Z,1.50
2023-02-08T21:54:45.679Z,1.50
2023-02-08T21:57:18.849Z,1.40
2023-02-08T21:59:47.925Z,1.30
2023-02-08T22:02:21.552Z,1.30
2023-02-08T22:05:07.348Z,1.40
2023-02-08T22:07:42.985Z,1.30
2023-02-08T22:10:13.913Z,1.30
2023-02-08T22:12:42.040Z,1.30
2023-02-08T22:15:11.188Z,1.40
2023-02-08T22:17:39.064Z,1.40
2023-02-08T22:20:07.661Z,1.40
2023-02-08T22:22:36.509Z,1.30
2023-02-08T22:25:04.401Z,1.30
2023-02-08T22:27:33.441Z,1.20
2023-02-08T22:30:01.120Z,1.20
2023-02-08T22:32:28.855Z,1.30
2023-02-08T22:34:56.618Z,1.30
2023-02-08T22:37:24.544Z,1.20
2023-02-08T22:39:52.270Z,1.20
2023-02-08T22:42:19.982Z,1.20
2023-02-08T22:44:49.010Z,1.20
2023-02-08T22:47:17.541Z,1.20
2023-02-08T22:49:45.212Z,1.10
2023-02-08T22:52:14.178Z,1.10
2023-02-08T22:54:42.326Z,1.10
2023-02-08T22:57:10.625Z,1.20
2023-02-08T22:59:39.016Z,1.20
2023-02-08T23:02:08.163Z,1.20
2023-02-08T23:04:36.833Z,1.20
2023-02-08T23:07:05.363Z,1.20
2023-02-08T23:09:33.101Z,1.10
2023-02-08T23:12:00.815Z,1.10
2023-02-08T23:14:28.543Z,1.00
2023-02-08T23:16:56.402Z,1.00
2023-02-08T23:19:25.590Z,1.00
2023-02-08T23:21:53.278Z,1.00
2023-02-08T23:24:20.954Z,1.00
2023-02-08T23:26:48.793Z,1.00
2023-02-08T23:29:16.516Z,1.00
2023-02-08T23:31:44.953Z,1.00
2023-02-08T23:34:12.859Z,1.00
2023-02-08T23:36:42.102Z,1.00
2023-02-08T23:39:09.841Z,1.00
2023-02-08T23:41:37.793Z,0.90
2023-02-08T23:44:05.603Z,0.90
2023-02-08T23:46:33.482Z,0.90
2023-02-08T23:49:01.211Z,0.90
2023-02-08T23:51:28.972Z,0.80
2023-02-08T23:53:57.988Z,0.80
2023-02-08T23:56:27.935Z,0.90
2023-02-08T23:58:57.228Z,0.80
